createdAt,value
2018-02-22T00:01:29.613Z,0.00
2018-02-22T00:03:01.431Z,0.00
2018-02-22T00:04:33.248Z,0.00
2018-02-22T00:06:05.066Z,0.00
2018-02-22T00:07:36.883Z,0.00
2018-02-22T00:09:08.702Z,0.00
2018-02-22T00:10:40.519Z,0.00
2018-02-22T00:12:12.336Z,0.00
2018-02-22T00:13:44.156Z,0.00
2018-02-22T00:15:15.973Z,0.00
2018-02-22T00:16:48.042Z,0.00
2018-02-22T00:18:19.609Z,0.00
2018-02-22T00:19:51.426Z,0.00
2018-02-22T00:21:23.246Z,0.00
2018-02-22T00:22:55.164Z,0.00
2018-02-22T00:24:26.882Z,0.00
2018-02-22T00:25:58.704Z,0.00
2018-02-22T00:27:30.517Z,0.00
2018-02-22T00:29:02.338Z,0.00
2018-02-22T00:30:34.155Z,0.00
2018-02-22T00:32:05.972Z,0.00
2018-02-22T00:33:37.789Z,0.00
2018-02-22T00:35:09.707Z,0.00
2018-02-22T00:36:41.426Z,0.00
2018-02-22T00:38:13.241Z,0.00
2018-02-22T00:39:45.062Z,0.00
2018-02-22T00:41:16.879Z,0.00
2018-02-22T00:42:48.696Z,0.00
2018-02-22T00:44:20.514Z,0.00
2018-02-22T00:45:52.335Z,0.00
2018-02-22T00:47:24.249Z,0.00
2018-02-22T00:48:55.966Z,0.00
2018-02-22T00:50:27.784Z,0.00
2018-02-22T00:51:59.602Z,0.00
2018-02-22T00:53:31.670Z,0.00
2018-02-22T00:55:03.236Z,0.00
2018-02-22T00:56:35.054Z,0.00
2018-02-22T00:58:06.871Z,0.00
2018-02-22T00:59:38.689Z,0.00
2018-02-22T01:01:10.506Z,0.00
2018-02-22T01:02:42.323Z,0.00
2018-02-22T01:04:14.141Z,0.00
2018-02-22T01:05:45.958Z,0.00
2018-02-22T01:07:17.777Z,0.00
2018-02-22T01:08:49.592Z,0.00
2018-02-22T01:10:21.414Z,0.00
2018-02-22T01:11:53.328Z,0.00
2018-02-22T01:13:25.047Z,0.00
2018-02-22T01:14:56.865Z,0.00
2018-02-22T01:16:28.679Z,0.00
2018-02-22T01:18:00.597Z,0.00
2018-02-22T01:19:32.314Z,0.00
2018-02-22T01:21:04.131Z,0.00
2018-02-22T01:22:35.948Z,0.00
2018-02-22T01:24:07.865Z,0.00
2018-02-22T01:25:39.581Z,0.00
2018-02-22T01:27:11.400Z,0.00
2018-02-22T01:28:43.217Z,0.00
2018-02-22T01:30:15.134Z,0.00
2018-02-22T01:31:46.852Z,0.00
2018-02-22T01:33:18.670Z,0.00
2018-02-22T01:34:50.495Z,0.00
2018-02-22T01:36:22.302Z,0.00
2018-02-22T01:37:54.120Z,0.00
2018-02-22T01:39:25.936Z,0.00
2018-02-22T01:40:57.754Z,0.00
2018-02-22T01:42:29.575Z,0.00
2018-02-22T01:44:01.395Z,0.00
2018-02-22T01:45:33.205Z,0.00
2018-02-22T01:47:05.023Z,0.00
2018-02-22T01:48:37.141Z,0.00
2018-02-22T01:50:08.666Z,0.00
2018-02-22T01:51:40.518Z,0.00
2018-02-22T01:53:12.291Z,0.00
2018-02-22T01:54:44.207Z,0.00
2018-02-22T01:56:15.924Z,0.00
2018-02-22T01:57:47.741Z,0.00
2018-02-22T01:59:19.558Z,0.00
2018-02-22T02:00:51.376Z,0.00
2018-02-22T02:02:23.194Z,0.00
2018-02-22T02:03:55.009Z,0.00
2018-02-22T02:05:26.826Z,0.00
2018-02-22T02:06:58.743Z,0.00
2018-02-22T02:08:30.460Z,0.00
2018-02-22T02:10:02.277Z,0.00
2018-02-22T02:11:34.095Z,0.00
2018-02-22T02:13:05.916Z,0.00
2018-02-22T02:14:37.729Z,0.00
2018-02-22T02:16:09.545Z,0.00
2018-02-22T02:17:41.361Z,0.00
2018-02-22T02:19:13.279Z,0.00
2018-02-22T02:20:45.017Z,0.00
2018-02-22T02:22:16.814Z,0.00
2018-02-22T02:23:48.636Z,0.00
2018-02-22T02:25:20.648Z,0.00
2018-02-22T02:26:52.262Z,0.00
2018-02-22T02:28:24.079Z,0.00
2018-02-22T02:29:55.895Z,0.00
2018-02-22T02:31:27.713Z,0.00
2018-02-22T02:32:59.529Z,0.00
2018-02-22T02:34:31.347Z,0.00
2018-02-22T02:36:03.164Z,0.00
2018-02-22T02:37:34.981Z,0.00
2018-02-22T02:39:06.797Z,0.00
2018-02-22T02:40:38.613Z,0.00
2018-02-22T02:42:10.432Z,0.00
2018-02-22T02:43:42.347Z,0.00
2018-02-22T02:45:14.068Z,0.00
2018-02-22T02:46:45.883Z,0.00
2018-02-22T02:48:17.702Z,0.00
2018-02-22T02:49:49.616Z,0.00
2018-02-22T02:51:21.393Z,0.00
2018-02-22T02:52:53.149Z,0.00
2018-02-22T02:54:24.976Z,0.00
2018-02-22T02:55:56.885Z,0.00
2018-02-22T02:57:28.600Z,0.00
2018-02-22T02:59:00.416Z,0.00
2018-02-22T03:00:32.233Z,0.00
2018-02-22T03:02:04.149Z,0.00
2018-02-22T03:03:35.865Z,0.00
2018-02-22T03:05:07.681Z,0.00
2018-02-22T03:06:39.498Z,0.00
2018-02-22T03:08:11.313Z,0.00
2018-02-22T03:09:43.129Z,0.00
2018-02-22T03:11:14.945Z,0.00
2018-02-22T03:12:46.763Z,0.00
2018-02-22T03:14:18.578Z,0.00
2018-02-22T03:15:50.394Z,0.00
2018-02-22T03:17:22.220Z,0.00
2018-02-22T03:18:54.028Z,0.00
2018-02-22T03:20:26.046Z,0.00
2018-02-22T03:21:57.660Z,0.00
2018-02-22T03:23:29.477Z,0.00
2018-02-22T03:25:01.293Z,0.00
2018-02-22T03:26:33.214Z,0.00
2018-02-22T03:28:04.934Z,0.00
2018-02-22T03:29:36.742Z,0.00
2018-02-22T03:31:08.558Z,0.00
2018-02-22T03:32:40.375Z,0.00
2018-02-22T03:34:12.190Z,0.00
2018-02-22T03:35:44.006Z,0.00
2018-02-22T03:37:15.822Z,0.00
2018-02-22T03:38:47.738Z,0.00
2018-02-22T03:40:19.454Z,0.00
2018-02-22T03:41:51.270Z,0.00
2018-02-22T03:43:23.088Z,0.00
2018-02-22T03:44:55.004Z,0.00
2018-02-22T03:46:26.719Z,0.00
2018-02-22T03:47:58.535Z,0.00
2018-02-22T03:49:30.352Z,0.00
2018-02-22T03:51:02.268Z,0.00
2018-02-22T03:52:33.985Z,0.00
2018-02-22T03:54:05.801Z,0.00
2018-02-22T03:55:37.617Z,0.00
2018-02-22T03:57:09.634Z,0.00
2018-02-22T03:58:41.250Z,0.00
2018-02-22T04:00:13.066Z,0.00
2018-02-22T04:01:44.906Z,0.00
2018-02-22T04:03:16.701Z,0.00
2018-02-22T04:04:48.515Z,0.00
2018-02-22T04:06:20.332Z,0.00
2018-02-22T04:07:52.148Z,0.00
2018-02-22T04:09:23.964Z,0.00
2018-02-22T04:10:55.782Z,0.00
2018-02-22T04:12:27.599Z,0.00
2018-02-22T04:13:59.413Z,0.00
2018-02-22T04:15:31.431Z,0.00
2018-02-22T04:17:03.044Z,0.00
2018-02-22T04:18:34.862Z,0.00
2018-02-22T04:20:06.678Z,0.00
2018-02-22T04:21:38.496Z,0.00
2018-02-22T04:23:10.310Z,0.00
2018-02-22T04:24:42.125Z,0.00
2018-02-22T04:26:13.942Z,0.00
2018-02-22T04:27:45.858Z,0.00
2018-02-22T04:29:17.578Z,0.00
2018-02-22T04:30:49.390Z,0.00
2018-02-22T04:32:21.206Z,0.00
2018-02-22T04:33:53.121Z,0.00
2018-02-22T04:35:24.837Z,0.00
2018-02-22T04:36:56.653Z,0.00
2018-02-22T04:38:28.469Z,0.00
2018-02-22T04:40:00.289Z,0.00
2018-02-22T04:41:32.101Z,0.00
2018-02-22T04:43:03.917Z,0.00
2018-02-22T04:44:35.732Z,0.00
2018-02-22T04:46:07.653Z,0.00
2018-02-22T04:47:39.364Z,0.00
2018-02-22T04:49:11.179Z,0.00
2018-02-22T04:50:42.996Z,0.00
2018-02-22T04:52:15.012Z,0.00
2018-02-22T04:53:46.628Z,0.00
2018-02-22T04:55:18.442Z,0.00
2018-02-22T04:56:50.258Z,0.00
2018-02-22T04:58:22.224Z,0.00
2018-02-22T04:59:53.889Z,0.00
2018-02-22T05:01:25.705Z,0.00
2018-02-22T05:02:57.521Z,0.00
2018-02-22T05:04:29.436Z,0.00
2018-02-22T05:06:01.152Z,0.00
2018-02-22T05:07:32.969Z,0.00
2018-02-22T05:09:04.785Z,0.00
2018-02-22T05:10:36.700Z,0.00
2018-02-22T05:12:08.415Z,0.00
2018-02-22T05:13:40.230Z,0.00
2018-02-22T05:15:12.045Z,0.00
2018-02-22T05:16:43.962Z,0.00
2018-02-22T05:18:15.683Z,0.00
2018-02-22T05:19:47.492Z,0.00
2018-02-22T05:21:19.307Z,0.00
2018-02-22T05:22:51.124Z,0.00
2018-02-22T05:24:22.939Z,0.00
2018-02-22T05:25:54.755Z,0.00
2018-02-22T05:27:26.570Z,0.00
2018-02-22T05:28:58.587Z,0.00
2018-02-22T05:30:30.202Z,0.00
2018-02-22T05:32:02.019Z,0.00
2018-02-22T05:33:33.833Z,0.00
2018-02-22T05:35:05.648Z,0.00
2018-02-22T05:36:37.464Z,0.00
2018-02-22T05:38:09.280Z,0.00
2018-02-22T05:39:41.095Z,0.00
2018-02-22T05:41:12.910Z,0.00
2018-02-22T05:42:44.726Z,0.00
2018-02-22T05:44:16.542Z,0.00
2018-02-22T05:45:48.359Z,0.00
2018-02-22T05:47:20.273Z,0.00
2018-02-22T05:48:51.989Z,0.00
2018-02-22T05:50:23.805Z,0.00
2018-02-22T05:51:55.620Z,0.00
2018-02-22T05:53:27.539Z,0.00
2018-02-22T05:54:59.250Z,0.00
2018-02-22T05:56:31.065Z,0.00
2018-02-22T05:58:02.880Z,0.00
2018-02-22T05:59:34.696Z,0.00
2018-02-22T06:01:06.510Z,0.00
2018-02-22T06:02:38.326Z,0.00
2018-02-22T06:04:10.141Z,0.00
2018-02-22T06:05:42.058Z,0.00
2018-02-22T06:07:13.772Z,0.00
2018-02-22T06:08:45.588Z,0.00
2018-02-22T06:10:17.403Z,0.00
2018-02-22T06:11:49.219Z,0.00
2018-02-22T06:13:21.034Z,0.00
2018-02-22T06:14:52.849Z,0.00
2018-02-22T06:16:24.665Z,0.00
2018-02-22T06:17:56.480Z,0.00
2018-02-22T06:19:28.299Z,0.00
2018-02-22T06:21:00.111Z,0.00
2018-02-22T06:22:31.927Z,0.00
2018-02-22T06:24:03.943Z,0.00
2018-02-22T06:25:35.558Z,0.00
2018-02-22T06:27:07.374Z,0.00
2018-02-22T06:28:39.189Z,0.00
2018-02-22T06:30:11.005Z,0.00
2018-02-22T06:31:42.820Z,0.00
2018-02-22T06:33:14.636Z,0.00
2018-02-22T06:34:46.451Z,0.00
2018-02-22T06:36:18.266Z,0.00
2018-02-22T06:37:50.082Z,0.00
2018-02-22T06:39:21.897Z,0.00
2018-02-22T06:40:53.718Z,0.00
2018-02-22T06:42:25.629Z,0.00
2018-02-22T06:43:57.345Z,0.00
2018-02-22T06:45:29.159Z,0.00
2018-02-22T06:47:00.975Z,0.00
2018-02-22T06:48:32.791Z,0.00
2018-02-22T06:50:04.606Z,0.00
2018-02-22T06:51:36.422Z,0.00
2018-02-22T06:53:08.237Z,0.00
2018-02-22T06:54:40.152Z,0.00
2018-02-22T06:56:11.867Z,0.00
2018-02-22T06:57:43.684Z,0.00
2018-02-22T06:59:15.499Z,0.00
2018-02-22T07:00:47.515Z,0.00
2018-02-22T07:02:19.129Z,0.00
2018-02-22T07:03:50.945Z,0.00
2018-02-22T07:05:22.762Z,0.00
2018-02-22T07:06:54.576Z,0.00
2018-02-22T07:08:26.391Z,0.00
2018-02-22T07:09:58.207Z,0.00
2018-02-22T07:11:30.024Z,0.00
2018-02-22T07:13:01.837Z,0.00
2018-02-22T07:14:33.652Z,0.00
2018-02-22T07:16:05.469Z,0.00
2018-02-22T07:17:37.286Z,0.00
2018-02-22T07:19:09.199Z,0.00
2018-02-22T07:20:40.914Z,0.00
2018-02-22T07:22:12.730Z,0.00
2018-02-22T07:23:44.545Z,0.00
2018-02-22T07:25:16.510Z,0.00
2018-02-22T07:26:48.175Z,0.00
2018-02-22T07:28:19.995Z,0.00
2018-02-22T07:29:51.806Z,0.00
2018-02-22T07:31:23.621Z,0.00
2018-02-22T07:32:55.437Z,0.00
2018-02-22T07:34:27.252Z,0.00
2018-02-22T07:35:59.069Z,0.00
2018-02-22T07:37:31.083Z,0.00
2018-02-22T07:39:02.697Z,0.00
2018-02-22T07:40:34.513Z,0.00
2018-02-22T07:42:06.328Z,0.00
2018-02-22T07:43:38.143Z,0.00
2018-02-22T07:45:09.959Z,0.00
2018-02-22T07:46:41.775Z,0.00
2018-02-22T07:48:13.590Z,0.00
2018-02-22T07:49:45.405Z,0.00
2018-02-22T07:51:17.221Z,0.00
2018-02-22T07:52:49.035Z,0.00
2018-02-22T07:54:20.850Z,0.00
2018-02-22T07:55:52.866Z,0.00
2018-02-22T07:57:24.482Z,0.00
2018-02-22T07:58:56.297Z,0.00
2018-02-22T08:00:28.113Z,0.00
2018-02-22T08:02:00.035Z,0.00
2018-02-22T08:03:31.744Z,0.00
2018-02-22T08:05:03.559Z,0.00
2018-02-22T08:06:35.374Z,0.00
2018-02-22T08:08:07.192Z,0.00
2018-02-22T08:09:39.005Z,0.00
2018-02-22T08:11:10.820Z,0.00
2018-02-22T08:12:42.635Z,0.00
2018-02-22T08:14:14.801Z,0.00
2018-02-22T08:15:46.265Z,0.00
2018-02-22T08:17:18.081Z,0.00
2018-02-22T08:18:49.896Z,0.00
2018-02-22T08:20:21.711Z,0.00
2018-02-22T08:21:53.526Z,0.00
2018-02-22T08:23:25.341Z,0.00
2018-02-22T08:24:57.155Z,0.00
2018-02-22T08:26:28.973Z,0.00
2018-02-22T08:28:00.789Z,0.00
2018-02-22T08:29:32.601Z,0.00
2018-02-22T08:31:04.417Z,0.00
2018-02-22T08:32:36.432Z,4.00
2018-02-22T08:34:08.048Z,0.00
2018-02-22T08:35:39.866Z,4.00
2018-02-22T08:37:11.678Z,4.00
2018-02-22T08:38:43.644Z,4.00
2018-02-22T08:40:15.308Z,8.00
2018-02-22T08:41:47.124Z,12.00
2018-02-22T08:43:18.939Z,16.00
2018-02-22T08:44:50.754Z,20.00
2018-02-22T08:46:22.570Z,36.00
2018-02-22T08:47:54.386Z,60.00
2018-02-22T08:49:26.204Z,96.00
2018-02-22T08:50:58.116Z,112.00
2018-02-22T08:52:29.832Z,148.00
2018-02-22T08:54:01.648Z,200.00
2018-02-22T08:55:33.467Z,244.00
2018-02-22T08:57:05.380Z,268.00
2018-02-22T08:58:37.095Z,312.00
2018-02-22T09:00:08.913Z,360.00
2018-02-22T09:01:40.727Z,424.00
2018-02-22T09:03:12.641Z,456.00
2018-02-22T09:04:44.357Z,544.00
2018-02-22T09:06:16.174Z,668.00
2018-02-22T09:07:47.989Z,812.00
2018-02-22T09:09:19.905Z,972.00
2018-02-22T09:10:51.620Z,1172.00
2018-02-22T09:12:23.436Z,1380.00
2018-02-22T09:13:55.252Z,1544.00
2018-02-22T09:15:27.068Z,1716.00
2018-02-22T09:16:58.884Z,1884.00
2018-02-22T09:18:30.702Z,2024.00
2018-02-22T09:20:02.518Z,2156.00
2018-02-22T09:21:34.331Z,2292.00
2018-02-22T09:23:06.148Z,2420.00
2018-02-22T09:24:37.972Z,2544.00
2018-02-22T09:26:09.779Z,2672.00
2018-02-22T09:27:41.696Z,2812.00
2018-02-22T09:29:13.442Z,2960.00
2018-02-22T09:30:45.225Z,3124.00
2018-02-22T09:32:17.043Z,3308.00
2018-02-22T09:33:49.007Z,3552.00
2018-02-22T09:35:20.673Z,3812.00
2018-02-22T09:36:52.488Z,4048.00
2018-02-22T09:38:24.390Z,4264.00
2018-02-22T09:39:56.219Z,4440.00
2018-02-22T09:41:27.935Z,4688.00
2018-02-22T09:42:59.751Z,4892.00
2018-02-22T09:44:31.567Z,5056.00
2018-02-22T09:46:03.483Z,5088.00
2018-02-22T09:47:35.198Z,5056.00
2018-02-22T09:49:07.014Z,5568.00
2018-02-22T09:50:38.830Z,6136.00
2018-02-22T09:52:10.647Z,6448.00
2018-02-22T09:53:42.590Z,6568.00
2018-02-22T09:55:14.278Z,6896.00
2018-02-22T09:56:46.098Z,7124.00
2018-02-22T09:58:18.061Z,7316.00
2018-02-22T09:59:49.727Z,7800.00
2018-02-22T10:01:21.544Z,9528.00
2018-02-22T10:02:53.360Z,10340.00
2018-02-22T10:04:25.377Z,10188.00
2018-02-22T10:05:57.197Z,8696.00
2018-02-22T10:07:28.819Z,8764.00
2018-02-22T10:09:00.630Z,8680.00
2018-02-22T10:10:32.444Z,9856.00
2018-02-22T10:12:04.261Z,10980.00
2018-02-22T10:13:36.079Z,10680.00
2018-02-22T10:15:07.897Z,11072.00
2018-02-22T10:16:39.713Z,12436.00
2018-02-22T10:18:11.532Z,10548.00
2018-02-22T10:19:43.349Z,11480.00
2018-02-22T10:21:15.167Z,14412.00
2018-02-22T10:22:47.091Z,16484.00
2018-02-22T10:24:18.806Z,15684.00
2018-02-22T10:25:50.622Z,10616.00
2018-02-22T10:27:22.442Z,9532.00
2018-02-22T10:28:54.260Z,8392.00
2018-02-22T10:30:26.079Z,11524.00
2018-02-22T10:31:57.897Z,11708.00
2018-02-22T10:33:29.764Z,13808.00
2018-02-22T10:35:01.537Z,19232.00
2018-02-22T10:36:33.749Z,24896.00
2018-02-22T10:38:05.214Z,20768.00
2018-02-22T10:39:37.000Z,21696.00
2018-02-22T10:41:08.914Z,15624.00
2018-02-22T10:42:40.634Z,16888.00
2018-02-22T10:44:12.454Z,13896.00
2018-02-22T10:45:44.293Z,13752.00
2018-02-22T10:47:16.372Z,20864.00
2018-02-22T10:48:47.937Z,21120.00
2018-02-22T10:50:19.785Z,21184.00
2018-02-22T10:51:52.018Z,22336.00
2018-02-22T10:53:23.377Z,15564.00
2018-02-22T10:54:55.728Z,14380.00
2018-02-22T10:56:27.019Z,14784.00
2018-02-22T10:57:58.963Z,19008.00
2018-02-22T10:59:31.116Z,19456.00
2018-02-22T11:01:02.484Z,28352.00
2018-02-22T11:02:34.304Z,25344.00
2018-02-22T11:04:06.127Z,31328.00
2018-02-22T11:05:38.248Z,31456.00
2018-02-22T11:07:09.773Z,31936.00
2018-02-22T11:08:41.591Z,28480.00
2018-02-22T11:10:13.413Z,28320.00
2018-02-22T11:11:45.235Z,24992.00
2018-02-22T11:13:17.058Z,21152.00
2018-02-22T11:14:48.886Z,24544.00
2018-02-22T11:16:20.914Z,40032.00
2018-02-22T11:17:52.970Z,37088.00
2018-02-22T11:19:24.350Z,32224.00
2018-02-22T11:20:56.693Z,33728.00
2018-02-22T11:22:27.995Z,24192.00
2018-02-22T11:23:59.818Z,36288.00
2018-02-22T11:25:31.641Z,30208.00
2018-02-22T11:27:03.725Z,42144.00
2018-02-22T11:28:35.287Z,22432.00
2018-02-22T11:30:07.112Z,26336.00
2018-02-22T11:31:39.361Z,64384.00
2018-02-22T11:33:11.396Z,65888.00
2018-02-22T11:34:42.580Z,57312.00
2018-02-22T11:36:14.504Z,57760.00
2018-02-22T11:37:46.278Z,63520.00
2018-02-22T11:39:18.051Z,63872.00
2018-02-22T11:40:49.875Z,40896.00
2018-02-22T11:42:22.135Z,25856.00
2018-02-22T11:43:53.522Z,33600.00
2018-02-22T11:45:25.348Z,19808.00
2018-02-22T11:46:58.045Z,67552.00
2018-02-22T11:48:28.996Z,21408.00
2018-02-22T11:50:01.348Z,59136.00
2018-02-22T11:51:33.566Z,62304.00
2018-02-22T11:53:04.476Z,28448.00
2018-02-22T11:54:36.393Z,55264.00
2018-02-22T11:56:08.150Z,50304.00
2018-02-22T11:57:39.942Z,64576.00
2018-02-22T11:59:11.773Z,62560.00
2018-02-22T12:00:43.591Z,66528.00
2018-02-22T12:02:15.420Z,66752.00
2018-02-22T12:03:47.278Z,63296.00
2018-02-22T12:05:19.076Z,62624.00
2018-02-22T12:06:50.904Z,45024.00
2018-02-22T12:08:22.734Z,44128.00
2018-02-22T12:09:54.544Z,33472.00
2018-02-22T12:11:26.371Z,75424.00
2018-02-22T12:12:58.295Z,80864.00
2018-02-22T12:14:30.021Z,79968.00
2018-02-22T12:16:01.847Z,87264.00
2018-02-22T12:17:33.673Z,48832.00
2018-02-22T12:19:05.499Z,40192.00
2018-02-22T12:20:37.328Z,83008.00
2018-02-22T12:22:09.151Z,22912.00
2018-02-22T12:23:40.977Z,23936.00
2018-02-22T12:25:12.803Z,25952.00
2018-02-22T12:26:44.636Z,26496.00
2018-02-22T12:28:16.469Z,79520.00
2018-02-22T12:29:49.615Z,38272.00
2018-02-22T12:31:20.205Z,79200.00
2018-02-22T12:32:52.403Z,30272.00
2018-02-22T12:34:23.756Z,38080.00
2018-02-22T12:35:55.586Z,103040.00
2018-02-22T12:37:27.405Z,105056.00
2018-02-22T12:38:59.230Z,107040.00
2018-02-22T12:40:31.067Z,28800.00
2018-02-22T12:42:02.908Z,26048.00
2018-02-22T12:43:34.707Z,25024.00
2018-02-22T12:45:06.532Z,58400.00
2018-02-22T12:46:38.388Z,111456.00
2018-02-22T12:48:10.182Z,108608.00
2018-02-22T12:49:42.209Z,106368.00
2018-02-22T12:51:13.832Z,115744.00
2018-02-22T12:52:45.657Z,112352.00
2018-02-22T12:54:17.487Z,112352.00
2018-02-22T12:55:49.310Z,107840.00
2018-02-22T12:57:21.136Z,105824.00
2018-02-22T12:58:53.012Z,103776.00
2018-02-22T13:00:24.790Z,25216.00
2018-02-22T13:01:56.653Z,106016.00
2018-02-22T13:03:28.444Z,100480.00
2018-02-22T13:05:00.271Z,101056.00
2018-02-22T13:06:32.099Z,92192.00
2018-02-22T13:08:04.027Z,94368.00
2018-02-22T13:09:35.752Z,96160.00
2018-02-22T13:11:07.580Z,97440.00
2018-02-22T13:12:39.600Z,92800.00
2018-02-22T13:14:11.235Z,94528.00
2018-02-22T13:15:43.063Z,97248.00
2018-02-22T13:17:14.890Z,89664.00
2018-02-22T13:18:46.719Z,86528.00
2018-02-22T13:20:18.547Z,97408.00
2018-02-22T13:21:50.376Z,75680.00
2018-02-22T13:23:22.203Z,87296.00
2018-02-22T13:24:54.031Z,98048.00
2018-02-22T13:26:25.963Z,97376.00
2018-02-22T13:27:57.686Z,92448.00
2018-02-22T13:29:29.516Z,91168.00
2018-02-22T13:31:01.396Z,93152.00
2018-02-22T13:32:33.173Z,96288.00
2018-02-22T13:34:05.001Z,98720.00
2018-02-22T13:35:36.830Z,101312.00
2018-02-22T13:37:08.659Z,100064.00
2018-02-22T13:38:40.498Z,97152.00
2018-02-22T13:40:12.318Z,26048.00
2018-02-22T13:41:44.152Z,23008.00
2018-02-22T13:43:15.976Z,29504.00
2018-02-22T13:44:48.806Z,98624.00
2018-02-22T13:46:19.632Z,82592.00
2018-02-22T13:47:51.460Z,103488.00
2018-02-22T13:49:23.289Z,105376.00
2018-02-22T13:50:55.122Z,111872.00
2018-02-22T13:52:27.059Z,98720.00
2018-02-22T13:53:58.778Z,25152.00
2018-02-22T13:55:30.604Z,26144.00
2018-02-22T13:57:02.483Z,24576.00
2018-02-22T13:58:34.262Z,53920.00
2018-02-22T14:00:06.091Z,36960.00
2018-02-22T14:01:38.011Z,39040.00
2018-02-22T14:03:09.846Z,17556.00
2018-02-22T14:04:41.574Z,84160.00
2018-02-22T14:06:13.401Z,15992.00
2018-02-22T14:07:45.227Z,15448.00
2018-02-22T14:09:17.053Z,84416.00
2018-02-22T14:10:48.886Z,76160.00
2018-02-22T14:12:20.707Z,75392.00
2018-02-22T14:13:52.532Z,75168.00
2018-02-22T14:15:24.446Z,88384.00
2018-02-22T14:16:56.187Z,75744.00
2018-02-22T14:18:28.014Z,24896.00
2018-02-22T14:20:00.150Z,26432.00
2018-02-22T14:21:31.769Z,24352.00
2018-02-22T14:23:03.496Z,23040.00
2018-02-22T14:24:35.531Z,23264.00
2018-02-22T14:26:07.454Z,22208.00
2018-02-22T14:27:38.983Z,89568.00
2018-02-22T14:29:10.807Z,91296.00
2018-02-22T14:30:42.629Z,96064.00
2018-02-22T14:32:14.468Z,93216.00
2018-02-22T14:33:46.345Z,98112.00
2018-02-22T14:35:18.108Z,99680.00
2018-02-22T14:36:49.936Z,104512.00
2018-02-22T14:38:21.763Z,107296.00
2018-02-22T14:39:53.692Z,106368.00
2018-02-22T14:42:57.249Z,111680.00
2018-02-22T14:44:29.115Z,108544.00
2018-02-22T14:46:00.906Z,111520.00
2018-02-22T14:47:32.737Z,32864.00
2018-02-22T14:49:04.566Z,114272.00
2018-02-22T14:50:36.395Z,25440.00
2018-02-22T14:52:08.223Z,109600.00
2018-02-22T14:53:40.052Z,108224.00
2018-02-22T14:55:11.880Z,104896.00
2018-02-22T14:56:43.709Z,108256.00
2018-02-22T14:58:15.639Z,108032.00
2018-02-22T15:01:19.198Z,110976.00
2018-02-22T15:02:51.028Z,117248.00
2018-02-22T15:04:22.896Z,118080.00
2018-02-22T15:05:54.693Z,118528.00
2018-02-22T15:07:26.519Z,66368.00
2018-02-22T15:08:58.350Z,105440.00
2018-02-22T15:10:30.180Z,115680.00
2018-02-22T15:12:02.018Z,115072.00
2018-02-22T15:13:33.842Z,114432.00
2018-02-22T15:15:05.676Z,114496.00
2018-02-22T15:16:37.603Z,102880.00
2018-02-22T15:18:09.537Z,22432.00
2018-02-22T15:19:41.165Z,19200.00
2018-02-22T15:21:12.996Z,19104.00
2018-02-22T15:22:44.825Z,27968.00
2018-02-22T15:24:16.653Z,118592.00
2018-02-22T15:25:48.490Z,120000.00
2018-02-22T15:27:20.308Z,122688.00
2018-02-22T15:28:52.356Z,30432.00
2018-02-22T15:30:23.967Z,32384.00
2018-02-22T15:31:55.794Z,124192.00
2018-02-22T15:33:27.622Z,34176.00
2018-02-22T15:34:59.557Z,33536.00
2018-02-22T15:36:31.279Z,32224.00
2018-02-22T15:38:03.104Z,35872.00
2018-02-22T15:39:34.931Z,78784.00
2018-02-22T15:41:06.761Z,115584.00
2018-02-22T15:42:38.584Z,42240.00
2018-02-22T15:44:10.411Z,43360.00
2018-02-22T15:45:42.237Z,130080.00
2018-02-22T15:47:14.065Z,30240.00
2018-02-22T15:48:45.893Z,22752.00
2018-02-22T15:50:17.720Z,18080.00
2018-02-22T15:51:49.547Z,17312.00
2018-02-22T15:53:21.490Z,19616.00
2018-02-22T15:54:53.205Z,18784.00
2018-02-22T15:56:25.024Z,19456.00
2018-02-22T15:57:57.511Z,21504.00
2018-02-22T15:59:28.706Z,26336.00
2018-02-22T16:01:00.504Z,33888.00
2018-02-22T16:02:32.327Z,29600.00
2018-02-22T16:04:04.157Z,30304.00
2018-02-22T16:05:35.976Z,36160.00
2018-02-22T16:07:07.801Z,32864.00
2018-02-22T16:08:39.744Z,120928.00
2018-02-22T16:10:11.515Z,26624.00
2018-02-22T16:11:43.426Z,25376.00
2018-02-22T16:13:15.405Z,34720.00
2018-02-22T16:14:46.932Z,52288.00
2018-02-22T16:16:18.750Z,140096.00
2018-02-22T16:17:50.576Z,122368.00
2018-02-22T16:19:22.400Z,143360.00
2018-02-22T16:20:54.228Z,142944.00
2018-02-22T16:22:26.053Z,34496.00
2018-02-22T16:23:57.880Z,152224.00
2018-02-22T16:25:29.706Z,143616.00
2018-02-22T16:27:01.535Z,138592.00
2018-02-22T16:30:05.588Z,133824.00
2018-02-22T16:31:37.019Z,72992.00
2018-02-22T16:33:09.371Z,116736.00
2018-02-22T16:36:12.738Z,20800.00
2018-02-22T16:39:16.634Z,18048.00
2018-02-22T16:40:48.520Z,19072.00
2018-02-22T16:42:19.805Z,16772.00
2018-02-22T16:43:51.631Z,15128.00
2018-02-22T16:45:23.460Z,14604.00
2018-02-22T16:46:55.286Z,16284.00
2018-02-22T16:48:27.211Z,25120.00
2018-02-22T16:49:58.959Z,37632.00
2018-02-22T16:51:30.756Z,129664.00
2018-02-22T16:53:02.581Z,81184.00
2018-02-22T16:54:34.418Z,27232.00
2018-02-22T16:56:06.230Z,22624.00
2018-02-22T16:57:38.105Z,22016.00
2018-02-22T16:59:09.880Z,23040.00
2018-02-22T17:00:41.889Z,30944.00
2018-02-22T17:02:13.835Z,97344.00
2018-02-22T17:03:45.563Z,64672.00
2018-02-22T17:05:17.709Z,121376.00
2018-02-22T17:06:49.408Z,49920.00
2018-02-22T17:08:20.841Z,100960.00
2018-02-22T17:09:52.655Z,83840.00
2018-02-22T17:11:24.490Z,48256.00
2018-02-22T17:12:56.306Z,34464.00
2018-02-22T17:14:28.145Z,26560.00
2018-02-22T17:15:59.957Z,22624.00
2018-02-22T17:17:31.784Z,18208.00
2018-02-22T17:19:03.608Z,18784.00
2018-02-22T17:22:07.260Z,24960.00
2018-02-22T17:23:39.609Z,27520.00
2018-02-22T17:25:11.008Z,46400.00
2018-02-22T17:26:42.732Z,50912.00
2018-02-22T17:28:14.556Z,31744.00
2018-02-22T17:29:46.387Z,27648.00
2018-02-22T17:31:18.203Z,35456.00
2018-02-22T17:32:50.045Z,74176.00
2018-02-22T17:34:21.874Z,81440.00
2018-02-22T17:35:53.675Z,83136.00
2018-02-22T17:37:25.803Z,44256.00
2018-02-22T17:38:57.528Z,44512.00
2018-02-22T17:40:29.695Z,38880.00
2018-02-22T17:42:01.604Z,52544.00
2018-02-22T17:43:33.030Z,100352.00
2018-02-22T17:45:04.621Z,68640.00
2018-02-22T17:46:36.444Z,91936.00
2018-02-22T17:48:08.274Z,54272.00
2018-02-22T17:49:40.095Z,39392.00
2018-02-22T17:51:11.920Z,49600.00
2018-02-22T17:52:43.806Z,106560.00
2018-02-22T17:54:15.570Z,57344.00
2018-02-22T17:57:19.229Z,35776.00
2018-02-22T17:58:51.046Z,24352.00
2018-02-22T18:00:22.872Z,26592.00
2018-02-22T18:01:54.697Z,26080.00
2018-02-22T18:03:26.622Z,21504.00
2018-02-22T18:04:58.347Z,26592.00
2018-02-22T18:06:30.173Z,37312.00
2018-02-22T18:08:01.994Z,28576.00
2018-02-22T18:09:33.819Z,25088.00
2018-02-22T18:11:05.643Z,57440.00
2018-02-22T18:12:37.511Z,42240.00
2018-02-22T18:14:09.290Z,70112.00
2018-02-22T18:15:41.114Z,90624.00
2018-02-22T18:17:12.940Z,85568.00
2018-02-22T18:18:44.863Z,74624.00
2018-02-22T18:20:16.587Z,86592.00
2018-02-22T18:21:48.511Z,49376.00
2018-02-22T18:23:20.237Z,29696.00
2018-02-22T18:24:52.062Z,89216.00
2018-02-22T18:26:23.888Z,92768.00
2018-02-22T18:27:56.472Z,45248.00
2018-02-22T18:29:27.538Z,37216.00
2018-02-22T18:32:31.186Z,25824.00
2018-02-22T18:34:03.163Z,23520.00
2018-02-22T18:35:34.838Z,81472.00
2018-02-22T18:37:06.662Z,85728.00
2018-02-22T18:38:38.633Z,89632.00
2018-02-22T18:40:10.412Z,84256.00
2018-02-22T18:41:42.140Z,76384.00
2018-02-22T18:43:13.962Z,71392.00
2018-02-22T18:44:45.787Z,31712.00
2018-02-22T18:46:17.612Z,29664.00
2018-02-22T18:47:49.440Z,23872.00
2018-02-22T18:49:21.264Z,38016.00
2018-02-22T18:50:53.097Z,68384.00
2018-02-22T18:52:24.915Z,57472.00
2018-02-22T18:53:56.751Z,24896.00
2018-02-22T18:57:00.403Z,28672.00
2018-02-22T18:58:32.321Z,26752.00
2018-02-22T19:00:04.041Z,26432.00
2018-02-22T19:01:35.865Z,32960.00
2018-02-22T19:03:07.716Z,28064.00
2018-02-22T19:04:39.520Z,10148.00
2018-02-22T19:06:11.379Z,8140.00
2018-02-22T19:07:43.163Z,6500.00
2018-02-22T19:09:14.986Z,5620.00
2018-02-22T19:10:46.840Z,6172.00
2018-02-22T19:12:18.634Z,6748.00
2018-02-22T19:13:50.460Z,8380.00
2018-02-22T19:15:22.317Z,12436.00